Time;durP1;ratioP1;P1;durP2;ratioP2;P2;SDS_P1;SDS_P2;PMS_P1;PMS_P2;Temp;Humidity;BMP_temperature;BMP_pressure;BME280_temperature;BME280_humidity;BME280_pressure;Samples;Min_cycle;Max_cycle;Signal;HPM_P1;HPM_P2
2023/05/23 00:00:53;;;;;;;4.90;4.67;;;20.80;49.80;;;;;;5008981;28;20214;-70
2023/05/23 00:03:21;;;;;;;5.07;4.77;;;20.80;49.70;;;;;;5010621;28;20493;-70
2023/05/23 00:05:47;;;;;;;4.90;4.70;;;20.80;49.70;;;;;;5008117;28;20625;-70
2023/05/23 00:08:13;;;;;;;4.40;4.17;;;20.70;49.60;;;;;;5021022;28;20434;-70
2023/05/23 00:10:38;;;;;;;4.50;4.27;;;20.70;49.70;;;;;;5006035;28;20492;-70
2023/05/23 00:13:08;;;;;;;4.53;4.30;;;20.80;49.80;;;;;;5006993;28;20251;-70
2023/05/23 00:15:36;;;;;;;4.50;4.10;;;20.70;49.70;;;;;;5019440;28;20243;-70
2023/05/23 00:18:01;;;;;;;5.00;4.70;;;20.80;49.80;;;;;;5043624;28;20991;-70
2023/05/23 00:20:27;;;;;;;4.67;4.47;;;20.70;49.70;;;;;;5022696;28;20475;-70
2023/05/23 00:22:57;;;;;;;4.30;4.10;;;20.70;49.70;;;;;;5019554;28;20219;-70
2023/05/23 00:25:32;;;;;;;4.03;3.83;;;20.70;49.60;;;;;;5006929;28;20452;-70
2023/05/23 00:27:58;;;;;;;4.20;4.00;;;20.70;49.70;;;;;;5044532;28;20490;-70
2023/05/23 00:30:24;;;;;;;4.80;4.57;;;20.70;49.70;;;;;;5014760;28;20469;-70
2023/05/23 00:32:52;;;;;;;4.73;4.53;;;20.70;49.70;;;;;;5004539;28;20931;-70
2023/05/23 00:35:18;;;;;;;4.63;4.43;;;20.70;49.70;;;;;;5015713;28;20358;-70
2023/05/23 00:37:44;;;;;;;4.23;4.00;;;20.70;49.70;;;;;;5019771;28;20472;-70
2023/05/23 00:40:10;;;;;;;4.20;3.90;;;20.70;49.70;;;;;;5020672;28;23660;-70
2023/05/23 00:42:36;;;;;;;4.00;3.80;;;20.70;49.60;;;;;;5013477;28;20457;-70
2023/05/23 00:45:01;;;;;;;4.70;4.40;;;20.70;49.70;;;;;;5014503;28;20799;-70
2023/05/23 00:47:28;;;;;;;3.80;3.60;;;20.70;49.70;;;;;;5006768;28;20786;-70
2023/05/23 00:49:53;;;;;;;4.40;4.20;;;20.70;49.70;;;;;;5015476;28;20234;-70
2023/05/23 00:52:19;;;;;;;4.07;3.87;;;20.70;49.70;;;;;;5012629;28;20439;-70
2023/05/23 00:54:45;;;;;;;4.33;4.13;;;20.70;49.70;;;;;;5018949;28;20253;-70
2023/05/23 00:57:10;;;;;;;4.67;4.37;;;20.70;49.70;;;;;;5017991;28;20231;-70
2023/05/23 00:59:37;;;;;;;6.30;4.00;;;20.70;49.70;;;;;;5012568;28;20223;-70
2023/05/23 01:02:03;;;;;;;3.80;3.60;;;20.70;49.70;;;;;;5018649;28;20261;-70
2023/05/23 01:04:32;;;;;;;3.97;3.77;;;20.70;49.70;;;;;;4998679;28;21294;-70
2023/05/23 01:06:59;;;;;;;4.10;3.90;;;20.70;49.70;;;;;;5000422;28;20270;-70
2023/05/23 01:09:27;;;;;;;4.87;4.57;;;20.70;49.70;;;;;;5004800;28;20519;-70
2023/05/23 01:12:11;;;;;;;4.03;3.83;;;20.70;49.70;;;;;;5012754;28;20460;-70
2023/05/23 01:14:47;;;;;;;4.40;4.20;;;20.70;49.70;;;;;;5004597;28;20454;-70
2023/05/23 01:17:23;;;;;;;4.10;3.90;;;20.70;49.70;;;;;;5016429;28;20418;-70
2023/05/23 01:20:07;;;;;;;4.23;4.03;;;20.70;49.70;;;;;;5011277;28;21478;-70
2023/05/23 01:23:01;;;;;;;4.10;3.90;;;20.70;49.70;;;;;;5012641;28;20448;-70
2023/05/23 01:25:58;;;;;;;4.00;3.80;;;20.70;49.70;;;;;;5011061;28;21042;-70
2023/05/23 01:28:28;;;;;;;4.70;4.30;;;20.70;49.70;;;;;;5006336;28;20459;-70
2023/05/23 01:30:57;;;;;;;4.40;4.20;;;20.70;49.80;;;;;;5010801;28;20946;-70
2023/05/23 01:33:24;;;;;;;3.90;3.70;;;20.70;49.80;;;;;;5009734;28;20469;-70
2023/05/23 01:35:50;;;;;;;3.63;3.43;;;20.70;49.80;;;;;;5016590;28;20873;-70
2023/05/23 01:38:16;;;;;;;3.93;3.73;;;20.70;49.70;;;;;;5047220;28;20506;-70
2023/05/23 01:40:42;;;;;;;4.10;3.90;;;20.70;49.70;;;;;;5001709;28;20242;-70
2023/05/23 01:43:07;;;;;;;3.63;3.43;;;20.70;49.70;;;;;;5017097;28;20221;-70
2023/05/23 01:45:33;;;;;;;3.40;3.20;;;20.70;49.70;;;;;;5006599;28;20792;-70
2023/05/23 01:48:01;;;;;;;3.60;3.40;;;20.70;49.70;;;;;;4996454;28;20255;-70
2023/05/23 01:50:27;;;;;;;4.00;3.70;;;20.70;49.70;;;;;;5010070;28;20442;-70
2023/05/23 01:52:54;;;;;;;4.00;3.80;;;20.70;49.70;;;;;;5009134;28;20450;-70
2023/05/23 01:55:23;;;;;;;4.40;4.20;;;20.70;49.70;;;;;;5014227;28;20487;-70
2023/05/23 01:57:54;;;;;;;3.97;3.77;;;20.70;49.70;;;;;;5018721;28;20453;-70
2023/05/23 02:00:20;;;;;;;3.83;3.63;;;20.70;49.70;;;;;;5006406;28;20472;-70
2023/05/23 02:02:46;;;;;;;3.20;3.00;;;20.70;49.70;;;;;;5005747;28;20449;-70
2023/05/23 02:05:11;;;;;;;3.50;3.30;;;20.70;49.80;;;;;;5014456;28;20502;-70
2023/05/23 02:07:37;;;;;;;4.17;3.97;;;20.70;49.80;;;;;;5007027;28;20660;-70
2023/05/23 02:10:03;;;;;;;3.30;3.10;;;20.70;49.70;;;;;;5007265;28;20761;-70
2023/05/23 02:12:29;;;;;;;4.07;3.87;;;20.70;49.80;;;;;;5013044;28;20764;-70
2023/05/23 02:14:55;;;;;;;4.00;3.80;;;20.70;49.70;;;;;;5017434;28;20447;-69
2023/05/23 02:17:21;;;;;;;3.50;3.30;;;20.70;49.80;;;;;;5017777;28;20694;-70
2023/05/23 02:19:47;;;;;;;3.40;3.20;;;20.70;49.80;;;;;;5009842;28;20442;-70
2023/05/23 02:22:13;;;;;;;3.67;3.47;;;20.70;49.80;;;;;;5018472;28;20237;-70
2023/05/23 02:24:38;;;;;;;3.60;3.40;;;20.70;49.80;;;;;;5013997;28;20495;-70
2023/05/23 02:27:04;;;;;;;3.13;2.93;;;20.70;49.70;;;;;;5009185;28;20222;-70
2023/05/23 02:29:30;;;;;;;3.77;3.57;;;20.70;49.80;;;;;;5023221;28;20222;-70
2023/05/23 02:31:55;;;;;;;3.50;3.30;;;20.70;49.70;;;;;;5021954;28;20215;-70
2023/05/23 02:34:21;;;;;;;3.33;3.13;;;20.70;49.80;;;;;;5008915;28;20231;-70
2023/05/23 02:36:46;;;;;;;4.10;3.80;;;20.70;49.80;;;;;;5012224;28;20223;-70
2023/05/23 02:39:12;;;;;;;2.70;2.60;;;20.70;49.80;;;;;;5016812;28;20225;-70
2023/05/23 02:41:37;;;;;;;3.30;3.10;;;20.70;49.70;;;;;;5017160;28;20234;-70
2023/05/23 02:44:03;;;;;;;3.97;3.67;;;20.70;49.80;;;;;;5020977;28;20211;-70
2023/05/23 02:46:29;;;;;;;3.27;3.13;;;20.70;49.80;;;;;;5014707;28;20215;-70
2023/05/23 02:48:54;;;;;;;3.30;3.10;;;20.70;49.80;;;;;;5017594;28;20219;-70
2023/05/23 02:51:20;;;;;;;3.73;3.53;;;20.70;49.80;;;;;;5012255;28;20215;-70
2023/05/23 02:53:46;;;;;;;3.23;3.03;;;20.70;49.70;;;;;;5016835;28;20230;-70
2023/05/23 02:56:12;;;;;;;3.17;2.97;;;20.70;49.80;;;;;;5017102;28;20234;-70
2023/05/23 02:58:38;;;;;;;3.03;2.83;;;20.70;49.80;;;;;;5016837;28;20218;-70
2023/05/23 03:01:04;;;;;;;3.40;3.20;;;20.70;49.80;;;;;;5009721;28;20993;-70
2023/05/23 03:03:33;;;;;;;3.50;3.30;;;20.70;49.80;;;;;;5007731;28;20460;-70
2023/05/23 03:05:59;;;;;;;2.87;2.77;;;20.70;49.80;;;;;;5009643;28;20230;-70
2023/05/23 03:08:25;;;;;;;3.27;3.07;;;20.70;49.80;;;;;;5000602;28;20503;-70
2023/05/23 03:10:51;;;;;;;3.50;3.30;;;20.70;49.80;;;;;;4999574;28;21109;-70
2023/05/23 03:13:17;;;;;;;3.20;3.00;;;20.70;49.70;;;;;;5018563;28;20218;-70
2023/05/23 03:15:43;;;;;;;3.00;2.80;;;20.70;49.70;;;;;;5010339;28;20961;-70
2023/05/23 03:18:08;;;;;;;3.70;3.50;;;20.70;49.80;;;;;;5015583;28;20442;-70
2023/05/23 03:20:34;;;;;;;3.50;3.30;;;20.70;49.80;;;;;;5017830;28;20233;-70
2023/05/23 03:22:59;;;;;;;2.90;2.70;;;20.70;49.70;;;;;;5019571;28;20219;-70
2023/05/23 03:25:25;;;;;;;3.80;3.50;;;20.70;49.80;;;;;;5016656;28;20222;-70
2023/05/23 03:27:51;;;;;;;3.43;3.23;;;20.70;49.80;;;;;;5007849;28;20227;-70
2023/05/23 03:30:16;;;;;;;4.53;3.10;;;20.60;49.70;;;;;;5017510;28;20276;-70
2023/05/23 03:32:42;;;;;;;4.00;3.80;;;20.70;49.80;;;;;;5000990;28;20227;-70
2023/05/23 03:35:08;;;;;;;3.50;3.30;;;20.70;49.80;;;;;;5005676;28;20714;-70
2023/05/23 03:37:33;;;;;;;3.40;3.20;;;20.70;49.80;;;;;;5008417;28;20219;-70
2023/05/23 03:39:59;;;;;;;3.23;3.03;;;20.70;49.80;;;;;;5004065;28;20223;-70
2023/05/23 03:42:25;;;;;;;3.30;3.10;;;20.70;49.80;;;;;;5005803;28;20219;-70
2023/05/23 03:44:50;;;;;;;2.93;2.73;;;20.70;49.80;;;;;;5010027;28;20687;-70
2023/05/23 03:47:16;;;;;;;2.97;2.87;;;20.60;49.70;;;;;;5005711;28;20228;-70
2023/05/23 03:49:41;;;;;;;3.30;3.10;;;20.70;49.90;;;;;;5011509;28;20827;-70
2023/05/23 03:52:07;;;;;;;3.50;3.30;;;20.60;49.70;;;;;;5015688;28;20673;-70
2023/05/23 03:54:32;;;;;;;3.13;2.93;;;20.60;49.70;;;;;;5003419;28;20277;-70
2023/05/23 03:56:58;;;;;;;4.00;3.80;;;20.70;49.80;;;;;;5003231;28;20212;-70
2023/05/23 03:59:23;;;;;;;3.33;3.13;;;20.70;49.80;;;;;;5011130;28;20706;-70
2023/05/23 04:01:49;;;;;;;3.20;3.00;;;20.70;49.80;;;;;;5020153;28;20248;-70
2023/05/23 04:04:16;;;;;;;3.10;2.93;;;20.70;49.80;;;;;;5016726;28;20553;-72
2023/05/23 04:06:41;;;;;;;3.27;3.07;;;20.60;49.70;;;;;;5029348;28;20717;-72
2023/05/23 04:09:07;;;;;;;2.97;2.87;;;20.60;49.70;;;;;;5022254;28;20528;-72
2023/05/23 04:11:33;;;;;;;3.30;3.10;;;20.70;49.80;;;;;;5024149;28;20226;-72
2023/05/23 04:13:58;;;;;;;3.27;3.07;;;20.70;49.80;;;;;;5010224;28;20456;-69
2023/05/23 04:16:24;;;;;;;3.83;3.63;;;20.70;49.70;;;;;;5005047;28;20228;-69
2023/05/23 04:18:50;;;;;;;3.40;3.20;;;20.70;49.70;;;;;;5016266;28;20239;-69
2023/05/23 04:21:16;;;;;;;3.37;3.17;;;20.70;49.60;;;;;;5010821;28;20223;-69
2023/05/23 04:23:41;;;;;;;3.10;3.00;;;20.70;49.60;;;;;;5003653;28;20428;-70
2023/05/23 04:26:09;;;;;;;3.33;3.13;;;20.70;49.60;;;;;;4997755;28;20223;-70
2023/05/23 04:28:34;;;;;;;2.83;2.70;;;20.80;49.60;;;;;;5005487;28;20249;-72
2023/05/23 04:31:01;;;;;;;3.07;2.97;;;20.80;49.60;;;;;;5007258;28;20521;-69
2023/05/23 04:33:29;;;;;;;2.83;2.63;;;20.80;49.60;;;;;;5005901;28;20878;-69
2023/05/23 04:35:55;;;;;;;3.47;3.27;;;20.80;49.60;;;;;;5014985;28;20435;-69
2023/05/23 04:38:21;;;;;;;3.27;3.07;;;20.80;49.60;;;;;;5010319;28;20479;-70
2023/05/23 04:40:48;;;;;;;2.60;2.50;;;20.80;49.50;;;;;;5001969;28;21095;-70
2023/05/23 04:43:15;;;;;;;2.90;2.80;;;20.80;49.50;;;;;;4994137;28;20786;-70
2023/05/23 04:45:40;;;;;;;3.03;2.93;;;20.80;49.50;;;;;;5008319;28;20418;-71
2023/05/23 04:48:06;;;;;;;3.10;2.90;;;20.80;49.50;;;;;;5006570;28;20823;-73
2023/05/23 04:50:34;;;;;;;3.50;3.30;;;20.80;49.50;;;;;;5013106;28;20234;-73
2023/05/23 04:53:00;;;;;;;2.97;2.77;;;20.80;49.50;;;;;;5011751;28;20495;-69
2023/05/23 04:55:25;;;;;;;3.43;3.23;;;20.80;49.50;;;;;;4997865;28;20477;-70
2023/05/23 04:57:51;;;;;;;3.50;3.20;;;20.80;49.40;;;;;;5004635;28;20227;-71
2023/05/23 05:00:17;;;;;;;3.33;3.13;;;20.80;49.50;;;;;;5001350;28;20254;-70
2023/05/23 05:02:42;;;;;;;3.10;2.90;;;20.80;49.50;;;;;;4996854;28;20347;-70
2023/05/23 05:05:08;;;;;;;3.50;3.20;;;20.80;49.60;;;;;;4991869;28;20227;-71
2023/05/23 05:07:35;;;;;;;2.80;2.70;;;20.80;50.20;;;;;;5001699;28;20230;-68
2023/05/23 05:10:01;;;;;;;3.40;3.20;;;20.80;49.50;;;;;;5000579;28;20648;-70
2023/05/23 05:12:26;;;;;;;3.10;2.90;;;20.80;49.50;;;;;;5001353;28;21006;-71
2023/05/23 05:14:52;;;;;;;3.13;2.93;;;20.80;49.50;;;;;;5012224;28;20454;-69
2023/05/23 05:17:18;;;;;;;4.13;2.90;;;20.80;49.50;;;;;;4999304;28;20212;-71
2023/05/23 05:19:44;;;;;;;4.67;3.23;;;20.80;49.50;;;;;;5003095;28;20223;-71
2023/05/23 05:22:10;;;;;;;3.30;3.10;;;20.80;49.50;;;;;;5014490;28;20697;-72
2023/05/23 05:24:36;;;;;;;3.53;3.23;;;20.80;49.50;;;;;;5014380;28;20472;-72
2023/05/23 05:27:02;;;;;;;4.43;3.87;;;20.80;49.50;;;;;;4998166;28;20591;-72
2023/05/23 05:29:28;;;;;;;3.10;2.90;;;20.80;49.40;;;;;;5000418;28;20350;-71
2023/05/23 05:31:53;;;;;;;3.23;3.03;;;20.80;49.30;;;;;;5009568;28;20440;-72
2023/05/23 05:34:19;;;;;;;3.20;3.00;;;20.80;49.30;;;;;;5010089;28;20593;-72
2023/05/23 05:36:46;;;;;;;3.80;3.50;;;20.80;49.30;;;;;;5001803;28;20580;-71
2023/05/23 05:39:13;;;;;;;2.93;2.77;;;20.80;49.40;;;;;;5012673;28;20427;-71
2023/05/23 05:41:39;;;;;;;3.30;3.10;;;20.80;49.40;;;;;;5013922;28;20460;-71
2023/05/23 05:44:05;;;;;;;3.83;3.43;;;20.80;49.50;;;;;;5008210;28;20969;-72
2023/05/23 05:46:30;;;;;;;3.23;3.03;;;20.80;49.40;;;;;;5015871;28;21084;-72
2023/05/23 05:48:56;;;;;;;3.00;2.80;;;20.80;49.50;;;;;;5011819;28;20519;-72
2023/05/23 05:51:21;;;;;;;3.03;2.93;;;20.80;49.50;;;;;;5014409;28;20222;-71
2023/05/23 05:53:48;;;;;;;2.73;2.60;;;20.80;49.50;;;;;;5004405;28;21193;-71
2023/05/23 05:56:14;;;;;;;3.60;3.40;;;20.80;49.50;;;;;;5000726;28;20227;-71
2023/05/23 05:58:39;;;;;;;3.30;3.10;;;20.80;49.50;;;;;;4993496;28;20444;-71
2023/05/23 06:01:05;;;;;;;3.23;3.03;;;20.80;49.50;;;;;;5008521;28;20218;-71
2023/05/23 06:03:31;;;;;;;3.27;3.07;;;20.80;49.50;;;;;;5005667;28;20325;-71
2023/05/23 06:05:56;;;;;;;3.50;3.30;;;20.80;49.50;;;;;;5005108;28;20290;-71
2023/05/23 06:08:22;;;;;;;3.03;2.83;;;20.80;49.50;;;;;;5004651;28;21698;-71
2023/05/23 06:10:48;;;;;;;2.70;2.50;;;20.80;49.50;;;;;;5004071;28;20218;-71
2023/05/23 06:13:13;;;;;;;3.00;2.90;;;20.80;49.50;;;;;;5008631;28;20241;-71
2023/05/23 06:15:39;;;;;;;3.07;2.87;;;20.80;49.50;;;;;;5007982;28;20223;-71
2023/05/23 06:18:04;;;;;;;2.60;2.50;;;20.80;49.50;;;;;;5010132;28;20218;-71
2023/05/23 06:20:30;;;;;;;3.30;3.10;;;20.80;49.50;;;;;;5016277;28;20627;-71
2023/05/23 06:22:55;;;;;;;3.13;2.93;;;20.80;49.50;;;;;;5016280;28;20629;-71
2023/05/23 06:25:21;;;;;;;3.23;3.10;;;20.80;49.50;;;;;;5001096;28;20284;-71
2023/05/23 06:27:46;;;;;;;2.70;2.50;;;20.80;49.50;;;;;;5004561;28;20218;-71
2023/05/23 06:30:13;;;;;;;3.10;2.90;;;20.80;49.50;;;;;;5012657;28;20306;-71
2023/05/23 06:32:39;;;;;;;3.40;3.10;;;20.80;49.50;;;;;;5007148;28;20215;-71
2023/05/23 06:35:05;;;;;;;2.90;2.70;;;20.80;49.50;;;;;;4999493;28;21063;-71
2023/05/23 06:37:31;;;;;;;2.60;2.50;;;20.80;49.50;;;;;;5007662;28;20451;-71
2023/05/23 06:39:56;;;;;;;3.20;3.00;;;20.80;49.50;;;;;;5000232;28;20496;-71
2023/05/23 06:42:22;;;;;;;3.27;3.07;;;20.80;49.50;;;;;;4998991;28;20564;-71
2023/05/23 06:44:47;;;;;;;3.30;3.10;;;20.80;49.50;;;;;;4997701;28;20234;-71
2023/05/23 06:47:13;;;;;;;3.33;3.13;;;20.80;49.50;;;;;;5003537;28;20222;-71
2023/05/23 06:49:38;;;;;;;3.27;3.07;;;20.80;49.60;;;;;;5001652;28;20220;-71
2023/05/23 06:52:04;;;;;;;2.80;2.60;;;20.80;49.50;;;;;;4998644;28;20220;-71
2023/05/23 06:54:29;;;;;;;3.27;3.07;;;20.80;49.50;;;;;;5010734;28;20761;-71
2023/05/23 06:56:55;;;;;;;3.00;2.80;;;20.80;49.50;;;;;;5004265;28;20220;-71
2023/05/23 06:59:21;;;;;;;3.60;3.40;;;20.80;49.50;;;;;;5001220;28;20322;-71
2023/05/23 07:01:46;;;;;;;3.00;2.83;;;20.80;49.50;;;;;;5002956;28;20459;-71
2023/05/23 07:04:12;;;;;;;3.10;2.90;;;20.80;49.50;;;;;;5001782;28;20648;-71
2023/05/23 07:06:38;;;;;;;3.33;3.13;;;20.80;49.50;;;;;;5009170;28;20223;-71
2023/05/23 07:09:04;;;;;;;2.67;2.47;;;20.80;49.50;;;;;;4998191;28;20219;-71
2023/05/23 07:11:30;;;;;;;2.67;2.53;;;20.80;49.50;;;;;;5014803;28;20420;-71
2023/05/23 07:13:55;;;;;;;2.60;2.40;;;20.80;49.50;;;;;;5013293;28;20708;-71
2023/05/23 07:16:21;;;;;;;2.60;2.40;;;20.80;49.50;;;;;;5006785;28;20257;-71
2023/05/23 07:18:46;;;;;;;2.80;2.60;;;20.80;49.50;;;;;;5006188;28;20293;-71
2023/05/23 07:21:12;;;;;;;2.90;2.70;;;20.80;49.50;;;;;;5003308;28;20223;-71
2023/05/23 07:23:39;;;;;;;2.90;2.80;;;20.80;49.50;;;;;;5014404;28;20701;-71
2023/05/23 07:26:04;;;;;;;2.93;2.83;;;20.80;49.50;;;;;;5016732;28;20483;-71
2023/05/23 07:28:30;;;;;;;2.80;2.60;;;20.80;49.50;;;;;;5011351;28;20447;-71
2023/05/23 07:30:57;;;;;;;3.00;2.90;;;20.80;49.60;;;;;;5011757;28;20698;-71
2023/05/23 07:33:22;;;;;;;2.93;2.83;;;20.80;49.50;;;;;;5001170;28;20234;-71
2023/05/23 07:35:48;;;;;;;2.90;2.70;;;20.80;49.60;;;;;;5012076;28;20438;-71
2023/05/23 07:38:13;;;;;;;3.10;2.90;;;20.80;49.60;;;;;;5010926;28;20717;-71
2023/05/23 07:40:39;;;;;;;2.50;2.40;;;20.80;49.50;;;;;;5013206;28;20309;-71
2023/05/23 07:43:05;;;;;;;2.93;2.73;;;20.80;49.50;;;;;;5019191;28;20230;-71
2023/05/23 07:45:30;;;;;;;2.90;2.70;;;20.80;49.60;;;;;;5010357;28;20234;-71
2023/05/23 07:47:56;;;;;;;2.73;2.63;;;20.80;49.60;;;;;;5006878;28;21446;-71
2023/05/23 07:50:22;;;;;;;3.03;2.83;;;20.80;49.60;;;;;;5015033;28;20623;-71
2023/05/23 07:52:50;;;;;;;2.90;2.80;;;20.80;49.60;;;;;;5005101;28;20296;-71
2023/05/23 07:55:15;;;;;;;2.90;2.70;;;20.80;49.60;;;;;;5007349;28;20751;-71
2023/05/23 07:57:41;;;;;;;2.70;2.60;;;20.80;49.60;;;;;;5009609;28;20464;-71
2023/05/23 08:00:08;;;;;;;2.87;2.67;;;20.80;49.50;;;;;;5007922;28;20265;-71
2023/05/23 08:02:34;;;;;;;2.97;2.77;;;20.80;49.60;;;;;;5042055;28;20273;-72
2023/05/23 08:05:00;;;;;;;3.13;2.93;;;20.80;49.50;;;;;;5008700;28;21154;-71
2023/05/23 08:07:25;;;;;;;2.47;2.37;;;20.80;49.60;;;;;;5015358;28;20230;-71
2023/05/23 08:09:51;;;;;;;3.00;2.80;;;20.80;49.60;;;;;;5018191;28;20623;-71
2023/05/23 08:12:17;;;;;;;3.03;2.83;;;20.80;49.60;;;;;;5015039;28;20292;-71
2023/05/23 08:14:42;;;;;;;2.80;2.60;;;20.80;49.60;;;;;;5019132;28;20239;-71
2023/05/23 08:17:08;;;;;;;2.73;2.60;;;20.80;49.60;;;;;;5017269;28;20219;-71
2023/05/23 08:19:33;;;;;;;3.30;3.10;;;20.80;49.60;;;;;;5007213;28;20226;-71
2023/05/23 08:21:58;;;;;;;3.47;3.17;;;20.80;49.60;;;;;;5006577;28;20313;-71
2023/05/23 08:24:24;;;;;;;3.30;3.10;;;20.80;49.60;;;;;;5006791;28;20219;-71
2023/05/23 08:26:50;;;;;;;3.40;3.20;;;20.80;49.60;;;;;;5007798;28;20218;-71
2023/05/23 08:29:15;;;;;;;2.87;2.67;;;20.80;49.60;;;;;;4994707;28;20224;-71
2023/05/23 08:31:41;;;;;;;4.13;2.83;;;20.80;49.60;;;;;;5014326;28;20226;-71
2023/05/23 08:34:07;;;;;;;3.20;3.00;;;20.80;49.60;;;;;;5012011;28;20264;-71
2023/05/23 08:36:35;;;;;;;3.10;2.80;;;20.80;49.60;;;;;;5014534;28;20230;-71
2023/05/23 08:39:01;;;;;;;3.50;3.30;;;20.80;49.60;;;;;;5018515;28;20660;-71
2023/05/23 08:41:29;;;;;;;3.10;2.90;;;20.80;49.60;;;;;;5014207;28;20532;-71
2023/05/23 08:43:55;;;;;;;3.60;3.30;;;20.80;49.60;;;;;;5014076;28;21050;-71
2023/05/23 08:46:22;;;;;;;2.93;2.73;;;20.80;49.60;;;;;;5004197;28;20853;-71
2023/05/23 08:48:51;;;;;;;2.43;2.33;;;20.80;49.60;;;;;;5009697;28;20433;-72
2023/05/23 08:51:17;;;;;;;2.50;2.40;;;20.80;49.60;;;;;;5007391;28;20449;-71
2023/05/23 08:53:47;;;;;;;3.10;2.90;;;20.80;49.60;;;;;;5012692;28;20520;-71
2023/05/23 08:56:13;;;;;;;3.07;2.87;;;20.80;49.60;;;;;;5002041;28;20804;-71
2023/05/23 08:58:44;;;;;;;3.10;2.90;;;20.80;49.60;;;;;;5004645;28;20523;-72
2023/05/23 09:01:10;;;;;;;3.03;2.70;;;20.80;49.60;;;;;;5018442;28;21336;-71
2023/05/23 09:03:36;;;;;;;5.17;3.23;;;20.80;49.60;;;;;;5014624;28;20480;-71
2023/05/23 09:06:04;;;;;;;3.70;3.40;;;20.80;49.60;;;;;;5001407;28;20451;-71
2023/05/23 09:08:31;;;;;;;3.50;3.30;;;20.80;49.70;;;;;;5007455;28;20520;-72
2023/05/23 09:10:56;;;;;;;3.23;3.03;;;20.80;49.70;;;;;;5003643;28;20465;-72
2023/05/23 09:13:22;;;;;;;2.73;2.63;;;20.80;49.70;;;;;;5002114;28;20443;-71
2023/05/23 09:16:04;;;;;;;2.73;2.63;;;20.80;49.70;;;;;;5001029;28;20232;-71
2023/05/23 09:18:36;;;;;;;3.37;3.17;;;20.80;49.70;;;;;;5014664;28;20233;-71
2023/05/23 09:21:02;;;;;;;3.23;3.03;;;20.80;49.70;;;;;;5008596;28;20449;-71
2023/05/23 09:23:31;;;;;;;2.80;2.70;;;20.80;49.70;;;;;;4998196;28;21096;-71
2023/05/23 09:26:04;;;;;;;2.97;2.77;;;20.80;49.70;;;;;;5002213;28;20243;-71
2023/05/23 09:28:33;;;;;;;2.80;2.60;;;20.80;49.70;;;;;;5009171;28;20460;-71
2023/05/23 09:31:07;;;;;;;3.03;2.93;;;20.80;49.70;;;;;;5011271;28;20427;-71
2023/05/23 09:33:46;;;;;;;3.43;3.13;;;20.80;49.70;;;;;;5008490;28;20459;-71
2023/05/23 09:36:11;;;;;;;2.80;2.70;;;20.80;49.80;;;;;;5007322;28;20963;-71
2023/05/23 09:38:38;;;;;;;3.13;2.93;;;20.80;49.70;;;;;;5005994;28;20431;-71
2023/05/23 09:41:05;;;;;;;2.70;2.60;;;20.80;49.70;;;;;;5002025;28;20710;-71
2023/05/23 09:43:30;;;;;;;3.03;2.83;;;20.80;49.70;;;;;;5005998;28;20487;-71
2023/05/23 09:46:17;;;;;;;2.90;2.70;;;20.80;49.70;;;;;;5012519;28;20567;-71
2023/05/23 09:48:51;;;;;;;3.10;2.90;;;20.80;49.70;;;;;;5005734;28;20482;-71
2023/05/23 09:51:20;;;;;;;2.97;2.77;;;20.80;49.80;;;;;;5015588;28;20460;-71
2023/05/23 09:53:46;;;;;;;3.00;2.80;;;20.70;49.60;;;;;;5000109;28;20478;-71
2023/05/23 09:56:14;;;;;;;2.73;2.53;;;20.80;49.70;;;;;;5014750;28;20495;-70
2023/05/23 09:58:46;;;;;;;2.77;2.67;;;20.70;49.60;;;;;;5007402;28;20469;-71
2023/05/23 10:01:15;;;;;;;3.47;3.27;;;20.80;49.70;;;;;;4996311;28;20548;-72
2023/05/23 10:03:56;;;;;;;3.03;2.83;;;20.70;49.60;;;;;;5002610;28;20473;-71
2023/05/23 10:06:33;;;;;;;2.90;2.70;;;20.80;49.70;;;;;;5017387;28;20465;-72
2023/05/23 10:09:07;;;;;;;2.47;2.30;;;20.80;49.70;;;;;;5015377;28;21010;-71
2023/05/23 10:11:32;;;;;;;3.00;2.80;;;20.70;49.60;;;;;;4995487;28;20869;-71
2023/05/23 10:14:07;;;;;;;2.63;2.53;;;20.80;49.70;;;;;;5015758;28;20456;-71
2023/05/23 10:16:39;;;;;;;2.70;2.60;;;20.80;49.70;;;;;;5009315;28;20238;-71
2023/05/23 10:19:26;;;;;;;3.33;3.13;;;20.70;49.70;;;;;;5017205;28;20485;-71
2023/05/23 10:22:01;;;;;;;2.87;2.70;;;20.70;49.60;;;;;;4999228;28;21479;-71
2023/05/23 10:24:27;;;;;;;2.67;2.50;;;20.70;49.60;;;;;;5000329;28;20591;-71
2023/05/23 10:26:54;;;;;;;2.80;2.70;;;20.70;49.60;;;;;;4996046;28;20472;-71
2023/05/23 10:29:23;;;;;;;2.60;2.40;;;20.70;49.60;;;;;;5009375;28;20881;-71
2023/05/23 10:31:50;;;;;;;2.50;2.40;;;20.70;49.60;;;;;;4999676;28;20943;-71
2023/05/23 10:34:29;;;;;;;2.83;2.60;;;20.70;49.60;;;;;;5007423;28;20983;-71
2023/05/23 10:37:01;;;;;;;2.87;2.67;;;20.70;49.60;;;;;;5012429;28;20467;-71
2023/05/23 10:39:38;;;;;;;2.93;2.77;;;20.70;49.60;;;;;;5004055;28;21244;-70
2023/05/23 10:42:18;;;;;;;2.50;2.40;;;20.70;49.70;;;;;;4997407;28;20479;-71
2023/05/23 10:44:43;;;;;;;2.50;2.33;;;20.70;49.60;;;;;;4998959;28;20519;-71
2023/05/23 10:47:11;;;;;;;2.60;2.50;;;20.70;49.60;;;;;;4998231;28;20460;-71
2023/05/23 10:49:38;;;;;;;2.70;2.60;;;20.80;49.70;;;;;;5007948;28;20224;-71
2023/05/23 10:52:06;;;;;;;3.33;3.13;;;20.70;49.60;;;;;;5005397;28;21017;-71
2023/05/23 10:54:36;;;;;;;3.07;2.87;;;20.80;49.70;;;;;;5014796;28;20454;-71
2023/05/23 10:57:03;;;;;;;2.67;2.57;;;20.80;49.60;;;;;;5002892;28;21197;-71
2023/05/23 10:59:28;;;;;;;2.80;2.60;;;20.80;49.60;;;;;;5012829;28;20425;-71
2023/05/23 11:01:55;;;;;;;3.10;2.90;;;20.80;49.60;;;;;;5003481;28;21009;-71
2023/05/23 11:04:27;;;;;;;2.90;2.70;;;20.80;49.60;;;;;;5014433;28;20246;-71
2023/05/23 11:06:54;;;;;;;2.80;2.60;;;20.80;49.60;;;;;;5019795;28;20460;-71
2023/05/23 11:09:20;;;;;;;3.07;2.90;;;20.80;49.60;;;;;;5016193;28;20455;-71
2023/05/23 11:12:04;;;;;;;2.67;2.47;;;20.80;49.60;;;;;;5007638;28;20471;-71
2023/05/23 11:14:32;;;;;;;2.63;2.53;;;20.80;49.60;;;;;;5042097;28;20448;-71
2023/05/23 11:17:19;;;;;;;2.70;2.50;;;20.80;49.70;;;;;;5011749;28;20950;-71
2023/05/23 11:20:06;;;;;;;2.50;2.40;;;20.80;49.60;;;;;;5007662;28;20456;-71
2023/05/23 11:22:33;;;;;;;2.27;2.17;;;20.80;49.60;;;;;;5010568;28;20826;-71
2023/05/23 11:25:00;;;;;;;2.53;2.40;;;20.80;49.60;;;;;;5006199;28;20449;-71
2023/05/23 11:27:27;;;;;;;3.07;2.87;;;20.80;49.60;;;;;;5004263;28;20428;-71
2023/05/23 11:30:15;;;;;;;2.30;2.20;;;20.80;49.60;;;;;;5001978;28;20441;-71
2023/05/23 11:32:48;;;;;;;2.70;2.50;;;20.80;49.60;;;;;;5008377;28;20795;-71
2023/05/23 11:35:15;;;;;;;2.53;2.43;;;20.80;49.50;;;;;;5003696;28;20473;-71
2023/05/23 11:37:42;;;;;;;2.40;2.30;;;20.80;49.60;;;;;;5009287;28;20471;-71
2023/05/23 11:40:31;;;;;;;2.60;2.50;;;20.80;49.50;;;;;;5018425;28;20896;-71
2023/05/23 11:42:57;;;;;;;2.83;2.63;;;20.80;49.50;;;;;;5011553;28;20440;-71
2023/05/23 11:45:24;;;;;;;2.60;2.50;;;20.80;49.50;;;;;;5007313;28;20491;-71
2023/05/23 11:47:50;;;;;;;2.40;2.30;;;20.80;50.20;;;;;;4997431;28;20477;-71
2023/05/23 11:50:16;;;;;;;2.00;1.90;;;20.80;49.50;;;;;;5011301;28;20917;-71
2023/05/23 11:52:42;;;;;;;2.30;2.10;;;20.80;49.50;;;;;;5008846;28;20226;-71
2023/05/23 11:55:08;;;;;;;2.50;2.40;;;20.80;49.50;;;;;;5014932;28;20446;-71
2023/05/23 11:57:40;;;;;;;2.53;2.43;;;20.80;49.40;;;;;;5017898;28;20849;-71
2023/05/23 12:00:07;;;;;;;2.40;2.30;;;20.80;49.50;;;;;;4998870;28;20461;-71
2023/05/23 12:02:41;;;;;;;3.10;2.07;;;20.80;49.40;;;;;;5005197;28;20951;-71
2023/05/23 12:05:09;;;;;;;2.60;2.50;;;20.80;49.40;;;;;;5011162;28;20427;-72
2023/05/23 12:07:35;;;;;;;2.90;2.70;;;20.80;49.40;;;;;;5004802;28;20480;-71
2023/05/23 12:10:04;;;;;;;2.23;2.13;;;20.80;49.40;;;;;;5001919;28;21010;-71
2023/05/23 12:12:31;;;;;;;2.63;2.27;;;20.80;49.30;;;;;;5004294;28;22352;-71
2023/05/23 12:14:57;;;;;;;2.20;2.10;;;20.80;49.30;;;;;;5005089;28;20432;-71
2023/05/23 12:17:23;;;;;;;2.20;2.10;;;20.80;49.30;;;;;;5016790;28;20460;-71
2023/05/23 12:19:48;;;;;;;2.70;2.50;;;20.80;49.30;;;;;;5007634;28;20621;-71
2023/05/23 12:22:14;;;;;;;2.50;2.40;;;20.80;49.30;;;;;;5002167;28;20225;-71
2023/05/23 12:24:51;;;;;;;2.57;2.37;;;20.80;49.60;;;;;;4997465;28;21334;-71
2023/05/23 12:27:17;;;;;;;2.17;2.07;;;20.80;49.30;;;;;;4997627;28;20231;-71
2023/05/23 12:29:50;;;;;;;2.33;2.23;;;20.80;49.30;;;;;;4999065;28;20431;-71
2023/05/23 12:32:16;;;;;;;2.37;2.27;;;20.80;49.20;;;;;;4997164;28;20212;-71
2023/05/23 12:34:42;;;;;;;2.30;2.13;;;20.80;49.20;;;;;;4996561;28;20461;-72
2023/05/23 12:37:07;;;;;;;2.87;2.67;;;20.80;49.20;;;;;;4996454;28;20314;-71
2023/05/23 12:39:35;;;;;;;2.50;2.30;;;20.80;49.20;;;;;;4996629;28;20457;-72
2023/05/23 12:42:08;;;;;;;2.67;2.53;;;20.80;49.20;;;;;;5010920;28;21191;-72
2023/05/23 12:44:34;;;;;;;2.10;2.00;;;20.80;49.10;;;;;;5006799;28;20924;-71
2023/05/23 12:47:00;;;;;;;2.20;2.10;;;20.80;49.10;;;;;;5003444;28;20847;-71
2023/05/23 12:49:25;;;;;;;3.10;2.37;;;20.80;49.10;;;;;;5014352;28;20525;-71